Preview of NWS' New Version of Forecast
This preview is not operational and should not be used for support decisions.

Terminal Aerodrome Forecast (TAF)

Issued by National Weather Service (NWS)

                            
842 
FTUS42 KKEY 242002 AAA
TAFMTH
TAF AMD
KMTH 242002Z 2420/2518 12009KT P6SM VCSH SCT020 BKN100=